Common Venture — SVBL4 — position and weather

sailwx.info

Track history (hours):
 
Tides and Currents Weather Stations Pressure Air Temp Water Temp Dewpoint Dewpoint Depression Visibility Wind Speed Wind Dir Waves Ship Positions

Common Venture

Last reported at 2017-Nov-17 17:03 UTC. Time now 2017-Nov-23 18:23 UTC.
Position N 41°47' W 071°23'.

Length 190 m; draft 9 m.

Type: Cargo ship. MMSI: 241155000.

Date/timePositionNaut miles runAvg speedWind from/ knotsBaromVisibWave heightAir tempDewpointWater temp
2017-Nov-17 17:03N 41°47' W 071°23'0 0.0
2017-Nov-17 16:56N 41°47' W 071°23'0 0.0
2017-Nov-17 16:20N 41°47' W 071°23'0 0.0
2017-Nov-17 15:56N 41°47' W 071°23'0 0.0
2017-Nov-17 15:26N 41°47' W 071°23'0 0.0
2017-Nov-17 14:56N 41°47' W 071°23'0 0.0
2017-Nov-17 14:26N 41°47' W 071°23'0 0.0
2017-Nov-17 13:56N 41°47' W 071°23'0 0.0
2017-Nov-17 13:26N 41°47' W 071°23'0 0.0
2017-Nov-17 12:56N 41°47' W 071°23'0 0.0
2017-Nov-17 12:26N 41°47' W 071°23'0 0.0
2017-Nov-17 11:56N 41°47' W 071°23'0 0.0
2017-Nov-17 11:26N 41°47' W 071°23'  
2017-Nov-12 19:20N 41°47' W 071°23'0 0.0
2017-Nov-12 18:44N 41°47' W 071°23'0 0.0
2017-Nov-12 11:32N 41°47' W 071°23'0 0.0
2017-Nov-12 11:26N 41°47' W 071°23'0 0.0
2017-Nov-12 08:08N 41°47' W 071°23'0 0.0
2017-Nov-12 07:56N 41°47' W 071°23'0 0.0
2017-Nov-12 07:26N 41°47' W 071°23'0 0.0
2017-Nov-12 06:50N 41°47' W 071°23'0 0.0
2017-Nov-12 06:26N 41°47' W 071°23'0 0.0
2017-Nov-12 05:56N 41°47' W 071°23'0 0.0
2017-Nov-12 05:26N 41°47' W 071°23'0 0.0
2017-Nov-12 04:56N 41°47' W 071°23'0 0.0
2017-Nov-12 04:26N 41°47' W 071°23'0 0.0
2017-Nov-12 03:56N 41°47' W 071°23'0 0.0
2017-Nov-12 03:26N 41°47' W 071°23'0 0.0
2017-Nov-12 02:56N 41°47' W 071°23'0 0.0
2017-Nov-12 02:26N 41°47' W 071°23'0 0.0
2017-Nov-12 01:56N 41°47' W 071°23'0 0.0
2017-Nov-12 01:20N 41°47' W 071°23'0 0.0
2017-Nov-12 00:56N 41°47' W 071°23'0 0.0
2017-Nov-12 00:14N 41°47' W 071°23'0 0.0
2017-Nov-11 23:56N 41°47' W 071°23'0 0.0
2017-Nov-11 23:20N 41°47' W 071°23'0 0.0
2017-Nov-11 22:50N 41°47' W 071°23'0 0.0
2017-Nov-11 22:26N 41°47' W 071°23'0 0.0
2017-Nov-11 21:50N 41°47' W 071°23'0 0.0
2017-Nov-11 21:26N 41°47' W 071°23'0 0.0
2017-Nov-11 20:38N 41°47' W 071°23'0 0.0
2017-Nov-11 20:20N 41°47' W 071°23'0 0.0
2017-Nov-11 19:56N 41°47' W 071°23'0 0.0
2017-Nov-11 19:26N 41°47' W 071°23'0 0.0
2017-Nov-11 18:56N 41°47' W 071°23'0 0.0
2017-Nov-11 18:20N 41°47' W 071°23'0 0.0
2017-Nov-11 17:56N 41°47' W 071°23'0 0.0
2017-Nov-11 17:26N 41°47' W 071°23'0 0.0
2017-Nov-11 16:56N 41°47' W 071°23'0 0.0
2017-Nov-11 16:14N 41°47' W 071°23'0 0.0
2017-Nov-11 15:50N 41°47' W 071°23'0 0.0
2017-Nov-11 15:26N 41°47' W 071°23'0 0.0
2017-Nov-11 14:56N 41°47' W 071°23'0 0.0
2017-Nov-11 14:26N 41°47' W 071°23'0 0.0
2017-Nov-11 13:56N 41°47' W 071°23'0 0.0
2017-Nov-11 13:14N 41°47' W 071°23'0 0.0
2017-Nov-11 12:56N 41°47' W 071°23'0 0.0
2017-Nov-11 12:26N 41°47' W 071°23'0 0.0
2017-Nov-11 11:44N 41°47' W 071°23'0 0.0
2017-Nov-11 11:14N 41°47' W 071°23'0 0.0
2017-Nov-11 10:56N 41°47' W 071°23'0 0.0
2017-Nov-11 10:14N 41°47' W 071°23'0 0.0
2017-Nov-11 09:56N 41°47' W 071°23'0 0.0
2017-Nov-11 09:20N 41°47' W 071°23'0 0.0
2017-Nov-11 08:50N 41°47' W 071°23'0 0.0
2017-Nov-11 08:26N 41°47' W 071°23'0 0.0
2017-Nov-11 07:14N 41°47' W 071°23'0 0.0
2017-Nov-11 06:56N 41°47' W 071°23'0 0.0
2017-Nov-10 22:41N 41°47' W 071°23'0 1.5
2017-Nov-10 22:29N 41°47' W 071°23'3 6.3
2017-Nov-10 21:59N 41°44' W 071°22'610.0
2017-Nov-10 21:25N 41°39' W 071°19'134 3.4
2017-Nov-09 05:32N 40°27' W 073°49'112.1
2017-Nov-09 05:29N 40°27' W 073°50'5 8.8
2017-Nov-09 04:56N 40°30' W 073°56'511.1
2017-Nov-09 04:30N 40°32' W 074°01'611.8
2017-Nov-09 04:00N 40°38' W 074°03'3 6.8
2017-Nov-09 03:30N 40°39' W 074°07'2 3.8
2017-Nov-09 03:00N 40°40' W 074°08'1 2.5
2017-Nov-09 02:29N 40°42' W 074°09'0 0.1
2017-Nov-09 01:45N 40°42' W 074°09'0 0.0
2017-Nov-09 00:42N 40°42' W 074°09'0 0.0
2017-Nov-09 00:30N 40°42' W 074°09'0 0.0
2017-Nov-08 23:54N 40°42' W 074°09'0 0.0
2017-Nov-08 23:30N 40°42' W 074°09'0 0.0
2017-Nov-08 23:00N 40°42' W 074°09'0 0.0
2017-Nov-08 22:30N 40°42' W 074°09'0 0.0
2017-Nov-08 21:54N 40°42' W 074°09'0 0.0
2017-Nov-08 21:30N 40°42' W 074°09'0 0.0
2017-Nov-08 21:00N 40°42' W 074°09'0 0.0
2017-Nov-08 20:30N 40°42' W 074°09'0 0.0
2017-Nov-08 20:00N 40°42' W 074°09'0 0.0
2017-Nov-08 19:30N 40°42' W 074°09'0 0.0
2017-Nov-08 18:57N 40°42' W 074°09'0 0.0
2017-Nov-08 18:30N 40°42' W 074°09'0 0.0
2017-Nov-08 18:00N 40°42' W 074°09'0 0.0
2017-Nov-08 17:30N 40°42' W 074°09'0 0.0
2017-Nov-08 16:57N 40°42' W 074°09'0 0.0
2017-Nov-08 16:30N 40°42' W 074°09'0 0.0
2017-Nov-08 16:00N 40°42' W 074°09'0 0.0
2017-Nov-08 15:30N 40°42' W 074°09'0 0.0
2017-Nov-08 15:00N 40°42' W 074°09'0 0.0
2017-Nov-08 14:30N 40°42' W 074°09'0 0.0
2017-Nov-08 13:54N 40°42' W 074°09'0 0.0
2017-Nov-08 13:30N 40°42' W 074°09'0 0.0
2017-Nov-08 13:00N 40°42' W 074°09'0 0.0
2017-Nov-08 12:30N 40°42' W 074°09'0 0.0
2017-Nov-08 12:00N 40°42' W 074°09'0 0.0
2017-Nov-08 11:30N 40°42' W 074°09'0 0.0
2017-Nov-08 10:57N 40°42' W 074°09'0 0.0
2017-Nov-08 10:30N 40°42' W 074°09'0 0.0
2017-Nov-08 10:00N 40°42' W 074°09'0 0.0
2017-Nov-08 09:27N 40°42' W 074°09'0 0.0
2017-Nov-08 09:00N 40°42' W 074°09'0 0.0
2017-Nov-08 08:30N 40°42' W 074°09'0 0.0
2017-Nov-08 07:57N 40°42' W 074°09'0 0.0
2017-Nov-08 07:30N 40°42' W 074°09'0 0.0
2017-Nov-08 07:00N 40°42' W 074°09'0 0.0
2017-Nov-08 06:27N 40°42' W 074°09'0 0.0
2017-Nov-08 06:00N 40°42' W 074°09'0 0.0
2017-Nov-08 05:30N 40°42' W 074°09'0 0.0
2017-Nov-08 05:00N 40°42' W 074°09'0 0.0
2017-Nov-08 04:30N 40°42' W 074°09'0 0.0
2017-Nov-08 03:57N 40°42' W 074°09'0 0.0
2017-Nov-08 03:24N 40°42' W 074°09'0 0.0
2017-Nov-08 02:57N 40°42' W 074°09'0 0.0
2017-Nov-08 02:21N 40°42' W 074°09'0 0.0
2017-Nov-08 02:00N 40°42' W 074°09'0 0.0
2017-Nov-08 01:30N 40°42' W 074°09'0 0.0
2017-Nov-08 01:00N 40°42' W 074°09'0 0.0
2017-Nov-08 00:27N 40°42' W 074°09'0 0.0
2017-Nov-07 23:57N 40°42' W 074°09'0 0.0
2017-Nov-07 23:27N 40°42' W 074°09'0 0.0
2017-Nov-07 22:57N 40°42' W 074°09'0 0.0
2017-Nov-07 22:15N 40°42' W 074°09'0 0.0
2017-Nov-07 22:00N 40°42' W 074°09'0 0.0
2017-Nov-07 21:24N 40°42' W 074°09'0 0.0
2017-Nov-07 20:45N 40°42' W 074°09'0 0.0
2017-Nov-07 20:30N 40°42' W 074°09'0 0.0
2017-Nov-07 20:00N 40°42' W 074°09'0 0.0
2017-Nov-07 19:30N 40°42' W 074°09'0 0.0
2017-Nov-07 19:00N 40°42' W 074°09'0 0.0
2017-Nov-07 18:30N 40°42' W 074°09'0 0.0
2017-Nov-07 18:00N 40°42' W 074°09'0 0.0
2017-Nov-07 17:30N 40°42' W 074°09'  
Track history (hours):
 
Tides and Currents Weather Stations Pressure Air Temp Water Temp Dewpoint Dewpoint Depression Visibility Wind Speed Wind Dir Waves Ship Positions

Common Venture

Last reported at 2017-Nov-17 17:03 UTC. Time now 2017-Nov-23 18:23 UTC.
Position N 41°47' W 071°23'.

Length 190 m; draft 9 m.

Type: Cargo ship. MMSI: 241155000.

Date/timePositionNaut miles runAvg speedWind from/ knotsBaromVisibWave heightAir tempDewpointWater temp
2017-Nov-17 17:03N 41°47' W 071°23'0 0.0
2017-Nov-17 16:56N 41°47' W 071°23'0 0.0
2017-Nov-17 16:20N 41°47' W 071°23'0 0.0
2017-Nov-17 15:56N 41°47' W 071°23'0 0.0
2017-Nov-17 15:26N 41°47' W 071°23'0 0.0
2017-Nov-17 14:56N 41°47' W 071°23'0 0.0
2017-Nov-17 14:26N 41°47' W 071°23'0 0.0
2017-Nov-17 13:56N 41°47' W 071°23'0 0.0
2017-Nov-17 13:26N 41°47' W 071°23'0 0.0
2017-Nov-17 12:56N 41°47' W 071°23'0 0.0
2017-Nov-17 12:26N 41°47' W 071°23'0 0.0
2017-Nov-17 11:56N 41°47' W 071°23'0 0.0
2017-Nov-17 11:26N 41°47' W 071°23'  
2017-Nov-12 19:20N 41°47' W 071°23'0 0.0
2017-Nov-12 18:44N 41°47' W 071°23'0 0.0
2017-Nov-12 11:32N 41°47' W 071°23'0 0.0
2017-Nov-12 11:26N 41°47' W 071°23'0 0.0
2017-Nov-12 08:08N 41°47' W 071°23'0 0.0
2017-Nov-12 07:56N 41°47' W 071°23'0 0.0
2017-Nov-12 07:26N 41°47' W 071°23'0 0.0
2017-Nov-12 06:50N 41°47' W 071°23'0 0.0
2017-Nov-12 06:26N 41°47' W 071°23'0 0.0
2017-Nov-12 05:56N 41°47' W 071°23'0 0.0
2017-Nov-12 05:26N 41°47' W 071°23'0 0.0
2017-Nov-12 04:56N 41°47' W 071°23'0 0.0
2017-Nov-12 04:26N 41°47' W 071°23'0 0.0
2017-Nov-12 03:56N 41°47' W 071°23'0 0.0
2017-Nov-12 03:26N 41°47' W 071°23'0 0.0
2017-Nov-12 02:56N 41°47' W 071°23'0 0.0
2017-Nov-12 02:26N 41°47' W 071°23'0 0.0
2017-Nov-12 01:56N 41°47' W 071°23'0 0.0
2017-Nov-12 01:20N 41°47' W 071°23'0 0.0
2017-Nov-12 00:56N 41°47' W 071°23'0 0.0
2017-Nov-12 00:14N 41°47' W 071°23'0 0.0
2017-Nov-11 23:56N 41°47' W 071°23'0 0.0
2017-Nov-11 23:20N 41°47' W 071°23'0 0.0
2017-Nov-11 22:50N 41°47' W 071°23'0 0.0
2017-Nov-11 22:26N 41°47' W 071°23'0 0.0
2017-Nov-11 21:50N 41°47' W 071°23'0 0.0
2017-Nov-11 21:26N 41°47' W 071°23'0 0.0
2017-Nov-11 20:38N 41°47' W 071°23'0 0.0
2017-Nov-11 20:20N 41°47' W 071°23'0 0.0
2017-Nov-11 19:56N 41°47' W 071°23'0 0.0
2017-Nov-11 19:26N 41°47' W 071°23'0 0.0
2017-Nov-11 18:56N 41°47' W 071°23'0 0.0
2017-Nov-11 18:20N 41°47' W 071°23'0 0.0
2017-Nov-11 17:56N 41°47' W 071°23'0 0.0
2017-Nov-11 17:26N 41°47' W 071°23'0 0.0
2017-Nov-11 16:56N 41°47' W 071°23'0 0.0
2017-Nov-11 16:14N 41°47' W 071°23'0 0.0
2017-Nov-11 15:50N 41°47' W 071°23'0 0.0
2017-Nov-11 15:26N 41°47' W 071°23'0 0.0
2017-Nov-11 14:56N 41°47' W 071°23'0 0.0
2017-Nov-11 14:26N 41°47' W 071°23'0 0.0
2017-Nov-11 13:56N 41°47' W 071°23'0 0.0
2017-Nov-11 13:14N 41°47' W 071°23'0 0.0
2017-Nov-11 12:56N 41°47' W 071°23'0 0.0
2017-Nov-11 12:26N 41°47' W 071°23'0 0.0
2017-Nov-11 11:44N 41°47' W 071°23'0 0.0
2017-Nov-11 11:14N 41°47' W 071°23'0 0.0
2017-Nov-11 10:56N 41°47' W 071°23'0 0.0
2017-Nov-11 10:14N 41°47' W 071°23'0 0.0
2017-Nov-11 09:56N 41°47' W 071°23'0 0.0
2017-Nov-11 09:20N 41°47' W 071°23'0 0.0
2017-Nov-11 08:50N 41°47' W 071°23'0 0.0
2017-Nov-11 08:26N 41°47' W 071°23'0 0.0
2017-Nov-11 07:14N 41°47' W 071°23'0 0.0
2017-Nov-11 06:56N 41°47' W 071°23'0 0.0
2017-Nov-10 22:41N 41°47' W 071°23'0 1.5
2017-Nov-10 22:29N 41°47' W 071°23'3 6.3
2017-Nov-10 21:59N 41°44' W 071°22'610.0
2017-Nov-10 21:25N 41°39' W 071°19'134 3.4
2017-Nov-09 05:32N 40°27' W 073°49'112.1
2017-Nov-09 05:29N 40°27' W 073°50'5 8.8
2017-Nov-09 04:56N 40°30' W 073°56'511.1
2017-Nov-09 04:30N 40°32' W 074°01'611.8
2017-Nov-09 04:00N 40°38' W 074°03'3 6.8
2017-Nov-09 03:30N 40°39' W 074°07'2 3.8
2017-Nov-09 03:00N 40°40' W 074°08'1 2.5
2017-Nov-09 02:29N 40°42' W 074°09'0 0.1
2017-Nov-09 01:45N 40°42' W 074°09'0 0.0
2017-Nov-09 00:42N 40°42' W 074°09'0 0.0
2017-Nov-09 00:30N 40°42' W 074°09'0 0.0
2017-Nov-08 23:54N 40°42' W 074°09'0 0.0
2017-Nov-08 23:30N 40°42' W 074°09'0 0.0
2017-Nov-08 23:00N 40°42' W 074°09'0 0.0
2017-Nov-08 22:30N 40°42' W 074°09'0 0.0
2017-Nov-08 21:54N 40°42' W 074°09'0 0.0
2017-Nov-08 21:30N 40°42' W 074°09'0 0.0
2017-Nov-08 21:00N 40°42' W 074°09'0 0.0
2017-Nov-08 20:30N 40°42' W 074°09'0 0.0
2017-Nov-08 20:00N 40°42' W 074°09'0 0.0
2017-Nov-08 19:30N 40°42' W 074°09'0 0.0
2017-Nov-08 18:57N 40°42' W 074°09'0 0.0
2017-Nov-08 18:30N 40°42' W 074°09'0 0.0
2017-Nov-08 18:00N 40°42' W 074°09'0 0.0
2017-Nov-08 17:30N 40°42' W 074°09'0 0.0
2017-Nov-08 16:57N 40°42' W 074°09'0 0.0
2017-Nov-08 16:30N 40°42' W 074°09'0 0.0
2017-Nov-08 16:00N 40°42' W 074°09'0 0.0
2017-Nov-08 15:30N 40°42' W 074°09'0 0.0
2017-Nov-08 15:00N 40°42' W 074°09'0 0.0
2017-Nov-08 14:30N 40°42' W 074°09'0 0.0
2017-Nov-08 13:54N 40°42' W 074°09'0 0.0
2017-Nov-08 13:30N 40°42' W 074°09'0 0.0
2017-Nov-08 13:00N 40°42' W 074°09'0 0.0
2017-Nov-08 12:30N 40°42' W 074°09'0 0.0
2017-Nov-08 12:00N 40°42' W 074°09'0 0.0
2017-Nov-08 11:30N 40°42' W 074°09'0 0.0
2017-Nov-08 10:57N 40°42' W 074°09'0 0.0
2017-Nov-08 10:30N 40°42' W 074°09'0 0.0
2017-Nov-08 10:00N 40°42' W 074°09'0 0.0
2017-Nov-08 09:27N 40°42' W 074°09'0 0.0
2017-Nov-08 09:00N 40°42' W 074°09'0 0.0
2017-Nov-08 08:30N 40°42' W 074°09'0 0.0
2017-Nov-08 07:57N 40°42' W 074°09'0 0.0
2017-Nov-08 07:30N 40°42' W 074°09'0 0.0
2017-Nov-08 07:00N 40°42' W 074°09'0 0.0
2017-Nov-08 06:27N 40°42' W 074°09'0 0.0
2017-Nov-08 06:00N 40°42' W 074°09'0 0.0
2017-Nov-08 05:30N 40°42' W 074°09'0 0.0
2017-Nov-08 05:00N 40°42' W 074°09'0 0.0
2017-Nov-08 04:30N 40°42' W 074°09'0 0.0
2017-Nov-08 03:57N 40°42' W 074°09'0 0.0
2017-Nov-08 03:24N 40°42' W 074°09'0 0.0
2017-Nov-08 02:57N 40°42' W 074°09'0 0.0
2017-Nov-08 02:21N 40°42' W 074°09'0 0.0
2017-Nov-08 02:00N 40°42' W 074°09'0 0.0
2017-Nov-08 01:30N 40°42' W 074°09'0 0.0
2017-Nov-08 01:00N 40°42' W 074°09'0 0.0
2017-Nov-08 00:27N 40°42' W 074°09'0 0.0
2017-Nov-07 23:57N 40°42' W 074°09'0 0.0
2017-Nov-07 23:27N 40°42' W 074°09'0 0.0
2017-Nov-07 22:57N 40°42' W 074°09'0 0.0
2017-Nov-07 22:15N 40°42' W 074°09'0 0.0
2017-Nov-07 22:00N 40°42' W 074°09'0 0.0
2017-Nov-07 21:24N 40°42' W 074°09'0 0.0
2017-Nov-07 20:45N 40°42' W 074°09'0 0.0
2017-Nov-07 20:30N 40°42' W 074°09'0 0.0
2017-Nov-07 20:00N 40°42' W 074°09'0 0.0
2017-Nov-07 19:30N 40°42' W 074°09'0 0.0
2017-Nov-07 19:00N 40°42' W 074°09'0 0.0
2017-Nov-07 18:30N 40°42' W 074°09'0 0.0
2017-Nov-07 18:00N 40°42' W 074°09'0 0.0
2017-Nov-07 17:30N 40°42' W 074°09'  

Dump ship's entire track history